Kydon — SWBZ — position and weather

sailwx.info

Track history (hours):
 
Tides and Currents Weather Stations Pressure Air Temp Water Temp Dewpoint Dewpoint Depression Visibility Wind Speed Wind Dir Waves Ship Positions

Kydon

Last reported at 2016-May-27 15:33 UTC. Time now 2016-May-27 16:10 UTC.
Position N 37°57' E 023°38'.

Length 192 m; draft 6.1 m.

Type: Passenger vessel. MMSI: 239593000.

Date/timePositionNaut miles runAvg speedWind from/ knotsBaromVisibWave heightAir tempDewpointWater temp
2016-May-27 15:33N 37°57' E 023°38'0 0.0
2016-May-27 14:33N 37°57' E 023°38'0 0.0
2016-May-27 13:33N 37°57' E 023°38'0 0.0
2016-May-27 12:33N 37°57' E 023°38'0 0.0
2016-May-27 11:33N 37°57' E 023°38'0 0.0
2016-May-27 10:33N 37°57' E 023°38'0 0.0
2016-May-27 09:32N 37°57' E 023°38'0 0.0
2016-May-27 08:33N 37°57' E 023°38'0 0.0
2016-May-27 07:33N 37°57' E 023°38'0 0.0
2016-May-27 06:33N 37°57' E 023°38'0 0.0
2016-May-27 05:33N 37°57' E 023°38'0 0.0
2016-May-27 04:33N 37°57' E 023°38'0 0.0
2016-May-27 03:33N 37°57' E 023°38'1010.0
2016-May-27 02:33N 37°47' E 023°41'1919.1
2016-May-27 01:33N 37°29' E 023°50'2619.6
2016-May-27 00:15N 37°04' E 023°59'1420.0
2016-May-26 23:33N 36°51' E 024°04'33 1.2
2016-May-25 20:32N 37°22' E 023°51'2020.7
2016-May-25 19:33N 37°41' E 023°41'1616.2
2016-May-25 18:33N 37°57' E 023°38'0 0.0
2016-May-25 17:33N 37°57' E 023°38'0 0.0
2016-May-25 16:33N 37°57' E 023°38'0 0.0
2016-May-25 15:33N 37°57' E 023°38'0 0.0
2016-May-25 14:33N 37°57' E 023°38'0 0.0
2016-May-25 13:33N 37°57' E 023°38'0 0.0
2016-May-25 12:33N 37°57' E 023°38'0 0.0
2016-May-25 11:33N 37°57' E 023°38'0 0.0
2016-May-25 10:33N 37°57' E 023°38'0 0.0
2016-May-25 09:33N 37°57' E 023°38'0 0.0
2016-May-25 08:33N 37°57' E 023°38'0 0.0
2016-May-25 07:03N 37°57' E 023°38'0 0.0
2016-May-25 06:33N 37°57' E 023°38'0 0.0
2016-May-25 05:33N 37°57' E 023°38'0 0.0
2016-May-25 04:34N 37°57' E 023°38'0 0.0
2016-May-25 03:34N 37°57' E 023°38'1413.7
2016-May-25 02:34N 37°44' E 023°44'2020.0
2016-May-25 01:33N 37°25' E 023°52'65 2.5
2016-May-23 23:23N 36°24' E 024°21'1920.5
2016-May-23 22:27N 36°41' E 024°10'2620.3
2016-May-23 21:09N 37°05' E 023°59'1220.3
2016-May-23 20:33N 37°17' E 023°53'2020.4
2016-May-23 19:33N 37°36' E 023°44'2019.6
2016-May-23 18:33N 37°54' E 023°37'3 2.6
2016-May-23 17:33N 37°57' E 023°38'0 0.0
2016-May-23 16:33N 37°57' E 023°38'0 0.0
2016-May-23 15:33N 37°57' E 023°38'0 0.0
2016-May-23 14:33N 37°57' E 023°38'0 0.0
2016-May-23 13:33N 37°57' E 023°38'0 0.0
2016-May-23 12:33N 37°57' E 023°38'0 0.0
2016-May-23 11:33N 37°57' E 023°38'0 0.0
2016-May-23 10:34N 37°57' E 023°38'0 0.0
2016-May-23 09:34N 37°57' E 023°38'0 0.0
2016-May-23 08:33N 37°57' E 023°38'0 0.0
2016-May-23 07:33N 37°57' E 023°38'0 0.0
2016-May-23 06:34N 37°57' E 023°38'0 0.0
2016-May-23 05:33N 37°57' E 023°38'0 0.0
2016-May-23 04:33N 37°57' E 023°38'0 0.0
2016-May-23 03:33N 37°57' E 023°38'9 9.0
2016-May-23 02:34N 37°48' E 023°41'1919.3
2016-May-23 01:33N 37°30' E 023°50'13 0.4
2016-May-21 20:19N 37°18' E 023°53'1620.6
2016-May-21 19:33N 37°32' E 023°46'2020.0
2016-May-21 18:33N 37°51' E 023°37'6 6.3
2016-May-21 17:34N 37°57' E 023°38'0 0.0
2016-May-21 16:33N 37°57' E 023°38'0 0.0
2016-May-21 15:34N 37°57' E 023°38'0 0.0
2016-May-21 14:34N 37°57' E 023°38'0 0.0
2016-May-21 13:34N 37°57' E 023°38'0 0.0
2016-May-21 12:34N 37°57' E 023°38'0 0.0
2016-May-21 11:34N 37°57' E 023°38'0 0.0
2016-May-21 10:34N 37°57' E 023°38'0 0.0
2016-May-21 09:34N 37°57' E 023°38'0 0.0
2016-May-21 08:33N 37°57' E 023°38'0 0.0
2016-May-21 07:34N 37°57' E 023°38'0 0.0
2016-May-21 06:34N 37°57' E 023°38'0 0.0
2016-May-21 05:33N 37°57' E 023°38'0 0.0
2016-May-21 04:34N 37°57' E 023°38'0 0.0
2016-May-21 03:33N 37°57' E 023°38'9 9.4
2016-May-21 02:33N 37°48' E 023°41'2019.6
2016-May-21 01:33N 37°29' E 023°49'13 0.5
2016-May-19 20:33N 37°16' E 023°54'2120.8
2016-May-19 19:33N 37°36' E 023°45'2019.9
2016-May-19 18:34N 37°54' E 023°37'3 2.7
2016-May-19 17:33N 37°57' E 023°38'0 0.0
2016-May-19 16:33N 37°57' E 023°38'0 0.0
2016-May-19 15:33N 37°57' E 023°38'0 0.0
2016-May-19 14:33N 37°57' E 023°38'0 0.0
2016-May-19 13:33N 37°57' E 023°38'0 0.0
2016-May-19 12:33N 37°57' E 023°38'0 0.0
2016-May-19 11:33N 37°57' E 023°38'0 0.0
2016-May-19 10:33N 37°57' E 023°38'0 0.0
2016-May-19 09:33N 37°57' E 023°38'0 0.0
2016-May-19 08:33N 37°57' E 023°38'0 0.0
2016-May-19 07:33N 37°57' E 023°38'0 0.0
2016-May-19 06:33N 37°57' E 023°38'0 0.0
2016-May-19 05:33N 37°57' E 023°38'0 0.0
2016-May-19 04:33N 37°57' E 023°38'0 0.0
2016-May-19 03:33N 37°57' E 023°38'9 9.4
2016-May-19 02:33N 37°48' E 023°42'2020.4
2016-May-19 01:33N 37°28' E 023°50'2220.3
2016-May-19 00:30N 37°08' E 023°59'30 1.2
2016-May-17 22:32N 36°39' E 024°11'4020.4
2016-May-17 20:33N 37°17' E 023°53'2020.5
2016-May-17 19:34N 37°36' E 023°43'2019.5
2016-May-17 18:33N 37°55' E 023°37'2 2.3
2016-May-17 17:33N 37°57' E 023°38'0 0.0
2016-May-17 16:33N 37°57' E 023°38'0 0.0
2016-May-17 15:33N 37°57' E 023°38'  
Track history (hours):
 
Tides and Currents Weather Stations Pressure Air Temp Water Temp Dewpoint Dewpoint Depression Visibility Wind Speed Wind Dir Waves Ship Positions

Kydon

Last reported at 2016-May-27 15:33 UTC. Time now 2016-May-27 16:11 UTC.
Position N 37°57' E 023°38'.

Length 192 m; draft 6.1 m.

Type: Passenger vessel. MMSI: 239593000.

Date/timePositionNaut miles runAvg speedWind from/ knotsBaromVisibWave heightAir tempDewpointWater temp
2016-May-27 15:33N 37°57' E 023°38'0 0.0
2016-May-27 14:33N 37°57' E 023°38'0 0.0
2016-May-27 13:33N 37°57' E 023°38'0 0.0
2016-May-27 12:33N 37°57' E 023°38'0 0.0
2016-May-27 11:33N 37°57' E 023°38'0 0.0
2016-May-27 10:33N 37°57' E 023°38'0 0.0
2016-May-27 09:32N 37°57' E 023°38'0 0.0
2016-May-27 08:33N 37°57' E 023°38'0 0.0
2016-May-27 07:33N 37°57' E 023°38'0 0.0
2016-May-27 06:33N 37°57' E 023°38'0 0.0
2016-May-27 05:33N 37°57' E 023°38'0 0.0
2016-May-27 04:33N 37°57' E 023°38'0 0.0
2016-May-27 03:33N 37°57' E 023°38'1010.0
2016-May-27 02:33N 37°47' E 023°41'1919.1
2016-May-27 01:33N 37°29' E 023°50'2619.6
2016-May-27 00:15N 37°04' E 023°59'1420.0
2016-May-26 23:33N 36°51' E 024°04'33 1.2
2016-May-25 20:32N 37°22' E 023°51'2020.7
2016-May-25 19:33N 37°41' E 023°41'1616.2
2016-May-25 18:33N 37°57' E 023°38'0 0.0
2016-May-25 17:33N 37°57' E 023°38'0 0.0
2016-May-25 16:33N 37°57' E 023°38'0 0.0
2016-May-25 15:33N 37°57' E 023°38'0 0.0
2016-May-25 14:33N 37°57' E 023°38'0 0.0
2016-May-25 13:33N 37°57' E 023°38'0 0.0
2016-May-25 12:33N 37°57' E 023°38'0 0.0
2016-May-25 11:33N 37°57' E 023°38'0 0.0
2016-May-25 10:33N 37°57' E 023°38'0 0.0
2016-May-25 09:33N 37°57' E 023°38'0 0.0
2016-May-25 08:33N 37°57' E 023°38'0 0.0
2016-May-25 07:03N 37°57' E 023°38'0 0.0
2016-May-25 06:33N 37°57' E 023°38'0 0.0
2016-May-25 05:33N 37°57' E 023°38'0 0.0
2016-May-25 04:34N 37°57' E 023°38'0 0.0
2016-May-25 03:34N 37°57' E 023°38'1413.7
2016-May-25 02:34N 37°44' E 023°44'2020.0
2016-May-25 01:33N 37°25' E 023°52'65 2.5
2016-May-23 23:23N 36°24' E 024°21'1920.5
2016-May-23 22:27N 36°41' E 024°10'2620.3
2016-May-23 21:09N 37°05' E 023°59'1220.3
2016-May-23 20:33N 37°17' E 023°53'2020.4
2016-May-23 19:33N 37°36' E 023°44'2019.6
2016-May-23 18:33N 37°54' E 023°37'3 2.6
2016-May-23 17:33N 37°57' E 023°38'0 0.0
2016-May-23 16:33N 37°57' E 023°38'0 0.0
2016-May-23 15:33N 37°57' E 023°38'0 0.0
2016-May-23 14:33N 37°57' E 023°38'0 0.0
2016-May-23 13:33N 37°57' E 023°38'0 0.0
2016-May-23 12:33N 37°57' E 023°38'0 0.0
2016-May-23 11:33N 37°57' E 023°38'0 0.0
2016-May-23 10:34N 37°57' E 023°38'0 0.0
2016-May-23 09:34N 37°57' E 023°38'0 0.0
2016-May-23 08:33N 37°57' E 023°38'0 0.0
2016-May-23 07:33N 37°57' E 023°38'0 0.0
2016-May-23 06:34N 37°57' E 023°38'0 0.0
2016-May-23 05:33N 37°57' E 023°38'0 0.0
2016-May-23 04:33N 37°57' E 023°38'0 0.0
2016-May-23 03:33N 37°57' E 023°38'9 9.0
2016-May-23 02:34N 37°48' E 023°41'1919.3
2016-May-23 01:33N 37°30' E 023°50'13 0.4
2016-May-21 20:19N 37°18' E 023°53'1620.6
2016-May-21 19:33N 37°32' E 023°46'2020.0
2016-May-21 18:33N 37°51' E 023°37'6 6.3
2016-May-21 17:34N 37°57' E 023°38'0 0.0
2016-May-21 16:33N 37°57' E 023°38'0 0.0
2016-May-21 15:34N 37°57' E 023°38'0 0.0
2016-May-21 14:34N 37°57' E 023°38'0 0.0
2016-May-21 13:34N 37°57' E 023°38'0 0.0
2016-May-21 12:34N 37°57' E 023°38'0 0.0
2016-May-21 11:34N 37°57' E 023°38'0 0.0
2016-May-21 10:34N 37°57' E 023°38'0 0.0
2016-May-21 09:34N 37°57' E 023°38'0 0.0
2016-May-21 08:33N 37°57' E 023°38'0 0.0
2016-May-21 07:34N 37°57' E 023°38'0 0.0
2016-May-21 06:34N 37°57' E 023°38'0 0.0
2016-May-21 05:33N 37°57' E 023°38'0 0.0
2016-May-21 04:34N 37°57' E 023°38'0 0.0
2016-May-21 03:33N 37°57' E 023°38'9 9.4
2016-May-21 02:33N 37°48' E 023°41'2019.6
2016-May-21 01:33N 37°29' E 023°49'13 0.5
2016-May-19 20:33N 37°16' E 023°54'2120.8
2016-May-19 19:33N 37°36' E 023°45'2019.9
2016-May-19 18:34N 37°54' E 023°37'3 2.7
2016-May-19 17:33N 37°57' E 023°38'0 0.0
2016-May-19 16:33N 37°57' E 023°38'0 0.0
2016-May-19 15:33N 37°57' E 023°38'0 0.0
2016-May-19 14:33N 37°57' E 023°38'0 0.0
2016-May-19 13:33N 37°57' E 023°38'0 0.0
2016-May-19 12:33N 37°57' E 023°38'0 0.0
2016-May-19 11:33N 37°57' E 023°38'0 0.0
2016-May-19 10:33N 37°57' E 023°38'0 0.0
2016-May-19 09:33N 37°57' E 023°38'0 0.0
2016-May-19 08:33N 37°57' E 023°38'0 0.0
2016-May-19 07:33N 37°57' E 023°38'0 0.0
2016-May-19 06:33N 37°57' E 023°38'0 0.0
2016-May-19 05:33N 37°57' E 023°38'0 0.0
2016-May-19 04:33N 37°57' E 023°38'0 0.0
2016-May-19 03:33N 37°57' E 023°38'9 9.4
2016-May-19 02:33N 37°48' E 023°42'2020.4
2016-May-19 01:33N 37°28' E 023°50'2220.3
2016-May-19 00:30N 37°08' E 023°59'30 1.2
2016-May-17 22:32N 36°39' E 024°11'4020.4
2016-May-17 20:33N 37°17' E 023°53'2020.5
2016-May-17 19:34N 37°36' E 023°43'2019.5
2016-May-17 18:33N 37°55' E 023°37'2 2.3
2016-May-17 17:33N 37°57' E 023°38'0 0.0
2016-May-17 16:33N 37°57' E 023°38'0 0.0
2016-May-17 15:33N 37°57' E 023°38'  

Dump ship's entire track history